createdAt,value
2023-03-17T00:00:22.792Z,2.63
2023-03-17T00:05:33.692Z,3.00
2023-03-17T00:15:43.198Z,2.03
2023-03-17T00:20:34.958Z,1.97
2023-03-17T00:25:30.416Z,1.80
2023-03-17T00:30:24.349Z,2.40
2023-03-17T00:35:18.815Z,1.87
2023-03-17T00:40:31.403Z,1.40
2023-03-17T00:45:26.963Z,2.07
2023-03-17T00:50:23.088Z,2.13
2023-03-17T00:55:15.769Z,1.80
2023-03-17T01:00:20.718Z,2.43
2023-03-17T01:05:13.949Z,2.03
2023-03-17T01:10:15.748Z,1.97
2023-03-17T01:15:08.045Z,1.90
2023-03-17T01:19:59.710Z,1.80
2023-03-17T01:24:51.558Z,1.90
2023-03-17T01:29:43.223Z,2.20
2023-03-17T01:34:35.071Z,1.80
2023-03-17T01:39:27.364Z,2.10
2023-03-17T01:44:19.466Z,1.90
2023-03-17T01:49:29.861Z,2.03
2023-03-17T01:54:35.693Z,2.03
2023-03-17T01:59:34.673Z,2.20
2023-03-17T02:04:26.886Z,1.73
2023-03-17T02:09:19.536Z,2.00
2023-03-17T02:14:11.243Z,2.40
2023-03-17T02:19:03.449Z,2.27
2023-03-17T02:23:56.657Z,2.17
2023-03-17T02:28:48.492Z,2.40
2023-03-17T02:33:40.262Z,2.50
2023-03-17T02:38:32.059Z,2.20
2023-03-17T02:43:23.783Z,2.70
2023-03-17T02:48:15.727Z,2.40
2023-03-17T02:53:08.088Z,2.20
2023-03-17T02:58:01.901Z,2.30
2023-03-17T03:02:54.711Z,2.30
2023-03-17T03:07:46.833Z,2.60
2023-03-17T03:12:38.553Z,2.57
2023-03-17T03:17:30.509Z,2.30
2023-03-17T03:22:22.254Z,2.50
2023-03-17T03:27:13.918Z,2.53
2023-03-17T03:32:06.493Z,2.90
2023-03-17T03:36:58.222Z,2.37
2023-03-17T03:41:49.932Z,2.63
2023-03-17T03:46:41.695Z,2.80
2023-03-17T03:51:33.565Z,2.47
2023-03-17T03:56:25.358Z,2.70
2023-03-17T04:01:17.976Z,2.90
2023-03-17T04:06:09.749Z,2.80
2023-03-17T04:11:01.428Z,2.57
2023-03-17T04:15:53.198Z,2.73
2023-03-17T04:20:45.195Z,2.60
2023-03-17T04:25:36.899Z,2.73
2023-03-17T04:30:29.111Z,3.27
2023-03-17T04:35:24.755Z,3.30
2023-03-17T04:40:18.897Z,3.37
2023-03-17T04:45:15.355Z,3.33
2023-03-17T04:50:08.806Z,3.30
2023-03-17T05:00:08.775Z,3.50
2023-03-17T05:05:01.012Z,3.33
2023-03-17T05:09:52.843Z,3.20
2023-03-17T05:14:45.443Z,3.30
2023-03-17T05:19:37.113Z,3.17
2023-03-17T05:24:28.768Z,3.27
2023-03-17T05:29:20.636Z,3.00
2023-03-17T05:34:12.296Z,3.90
2023-03-17T05:39:05.284Z,3.20
2023-03-17T05:43:57.136Z,3.07
2023-03-17T05:48:48.851Z,3.63
2023-03-17T05:53:41.015Z,3.30
2023-03-17T05:58:32.701Z,4.67
2023-03-17T06:03:24.490Z,6.93
2023-03-17T06:08:16.884Z,6.23
2023-03-17T06:13:09.181Z,6.00
2023-03-17T06:23:06.795Z,5.20
2023-03-17T06:27:58.713Z,5.73
2023-03-17T06:32:50.517Z,5.70
2023-03-17T06:37:42.312Z,5.83
2023-03-17T06:42:34.377Z,6.67
2023-03-17T06:47:26.408Z,5.97
2023-03-17T06:52:18.085Z,5.80
2023-03-17T06:57:10.123Z,5.60
2023-03-17T07:02:02.388Z,4.70
2023-03-17T07:06:54.386Z,4.47
2023-03-17T07:11:46.275Z,4.53
2023-03-17T07:16:38.403Z,5.07
2023-03-17T07:21:32.122Z,5.73
2023-03-17T07:36:52.198Z,5.60
2023-03-17T07:46:51.416Z,4.67
2023-03-17T07:51:44.979Z,4.80
2023-03-17T07:56:36.925Z,5.30
2023-03-17T08:01:29.193Z,4.80
2023-03-17T08:06:27.501Z,4.77
2023-03-17T08:11:20.042Z,5.03
2023-03-17T08:31:40.490Z,5.40
2023-03-17T08:36:32.254Z,5.13
2023-03-17T08:41:35.905Z,4.90
2023-03-17T08:46:36.957Z,5.00
2023-03-17T08:51:40.783Z,4.47
2023-03-17T08:56:34.513Z,4.80
2023-03-17T09:01:28.273Z,4.37
2023-03-17T09:06:22.142Z,4.10
2023-03-17T09:11:17.717Z,4.50
2023-03-17T09:16:23.302Z,4.20
2023-03-17T09:21:16.413Z,4.50
2023-03-17T09:26:09.204Z,4.57
2023-03-17T09:31:05.117Z,4.70
2023-03-17T09:35:57.134Z,4.50
2023-03-17T09:41:19.096Z,4.37
2023-03-17T09:46:45.409Z,4.30
2023-03-17T09:51:38.532Z,4.67
2023-03-17T09:56:36.462Z,4.90
2023-03-17T10:01:29.345Z,4.93
2023-03-17T10:06:36.015Z,4.30
2023-03-17T10:12:19.861Z,4.73
2023-03-17T10:17:27.082Z,4.30
2023-03-17T10:22:34.967Z,4.43
2023-03-17T10:27:28.297Z,5.00
2023-03-17T10:32:20.060Z,4.53
2023-03-17T10:37:24.778Z,4.40
2023-03-17T10:42:23.591Z,4.43
2023-03-17T10:47:38.288Z,4.77
2023-03-17T10:52:38.123Z,4.32
2023-03-17T10:57:37.615Z,4.68
2023-03-17T11:02:47.915Z,4.43
2023-03-17T11:12:58.469Z,4.68
2023-03-17T11:23:23.741Z,5.15
2023-03-17T11:28:31.442Z,4.32
2023-03-17T11:39:07.365Z,5.38
2023-03-17T11:44:19.919Z,5.90
2023-03-17T11:54:39.846Z,5.43
2023-03-17T11:59:45.045Z,5.22
2023-03-17T12:16:00.343Z,5.50
2023-03-17T12:21:07.748Z,5.18
2023-03-17T12:26:16.477Z,5.03
2023-03-17T12:31:23.932Z,5.80
2023-03-17T12:47:57.076Z,5.93
2023-03-17T12:53:11.404Z,6.38
2023-03-17T12:58:40.799Z,6.20
2023-03-17T13:14:16.766Z,6.45
2023-03-17T13:24:52.539Z,6.57
2023-03-17T13:45:41.156Z,6.47
2023-03-17T13:56:08.608Z,6.97
2023-03-17T14:01:15.493Z,6.80
2023-03-17T14:11:48.320Z,6.65
2023-03-17T14:22:28.597Z,5.05
2023-03-17T14:38:04.604Z,6.47
2023-03-17T14:48:04.721Z,5.60
2023-03-17T14:53:01.420Z,5.43
2023-03-17T14:57:55.500Z,6.25
2023-03-17T15:08:36.445Z,5.72
2023-03-17T15:39:13.588Z,5.85
2023-03-17T15:59:29.100Z,5.15
2023-03-17T16:14:34.994Z,6.78
2023-03-17T16:19:27.610Z,7.53
2023-03-17T16:24:24.742Z,7.25
2023-03-17T16:29:21.936Z,7.85
2023-03-17T16:34:18.845Z,6.78
2023-03-17T16:39:18.563Z,6.82
2023-03-17T16:44:12.269Z,7.40
2023-03-17T16:49:04.886Z,7.47
2023-03-17T16:59:02.336Z,7.63
2023-03-17T17:03:55.055Z,8.30
2023-03-17T17:08:50.010Z,8.43
2023-03-17T17:13:45.373Z,7.73
2023-03-17T17:18:37.981Z,7.87
2023-03-17T17:23:31.231Z,7.60
2023-03-17T17:28:25.646Z,8.70
2023-03-17T17:33:20.857Z,7.47
2023-03-17T17:43:40.288Z,8.70
2023-03-17T17:48:32.010Z,8.13
2023-03-17T17:53:24.370Z,8.17
2023-03-17T17:58:22.622Z,9.57
2023-03-17T18:03:14.422Z,8.30
2023-03-17T18:08:06.531Z,8.13
2023-03-17T18:12:58.562Z,7.67
2023-03-17T18:17:50.932Z,7.93
2023-03-17T18:22:43.139Z,8.53
2023-03-17T18:27:35.493Z,6.77
2023-03-17T18:32:28.894Z,7.37
2023-03-17T18:37:21.000Z,6.80
2023-03-17T18:42:12.825Z,6.93
2023-03-17T18:47:04.605Z,6.50
2023-03-17T18:51:57.293Z,7.03
2023-03-17T18:56:49.487Z,7.30
2023-03-17T19:01:41.673Z,6.87
2023-03-17T19:06:35.278Z,6.40
2023-03-17T19:11:29.582Z,7.53
2023-03-17T19:16:21.524Z,6.33
2023-03-17T19:21:13.547Z,7.13
2023-03-17T19:26:06.019Z,7.23
2023-03-17T19:30:58.394Z,7.03
2023-03-17T19:35:59.767Z,7.80
2023-03-17T19:40:52.744Z,7.37
2023-03-17T19:50:50.822Z,7.97
2023-03-17T19:55:44.602Z,8.47
2023-03-17T20:00:36.280Z,8.13
2023-03-17T20:05:30.977Z,7.60
2023-03-17T20:10:22.946Z,8.77
2023-03-17T20:15:16.269Z,8.73
2023-03-17T20:20:11.098Z,8.27
2023-03-17T20:25:03.842Z,8.67
2023-03-17T20:29:56.759Z,11.37
2023-03-17T20:34:48.723Z,13.50
2023-03-17T20:39:40.623Z,12.47
2023-03-17T20:44:32.770Z,12.57
2023-03-17T20:49:28.565Z,11.50
2023-03-17T20:54:20.223Z,11.60
2023-03-17T20:59:13.694Z,10.80
2023-03-17T21:09:14.566Z,11.60
2023-03-17T21:14:08.037Z,10.83
2023-03-17T21:19:00.658Z,9.47
2023-03-17T21:23:55.895Z,9.37
2023-03-17T21:28:49.141Z,10.30
2023-03-17T21:38:50.211Z,10.13
2023-03-17T21:43:41.874Z,10.63
2023-03-17T21:48:33.634Z,9.80
2023-03-17T21:53:26.175Z,10.03
2023-03-17T21:58:18.764Z,8.47
2023-03-17T22:03:19.070Z,6.97
2023-03-17T22:13:18.338Z,7.67
2023-03-17T22:18:12.879Z,5.37
2023-03-17T22:28:11.596Z,9.63
2023-03-17T22:33:09.026Z,7.83
2023-03-17T22:38:01.856Z,6.70
2023-03-17T22:42:57.005Z,6.20
2023-03-17T22:47:52.713Z,6.23
2023-03-17T22:52:45.152Z,7.20
2023-03-17T22:57:37.617Z,7.47
2023-03-17T23:02:30.394Z,6.57
2023-03-17T23:07:22.938Z,6.33
2023-03-17T23:12:14.798Z,6.40
2023-03-17T23:17:15.241Z,6.60
2023-03-17T23:22:09.662Z,6.27
2023-03-17T23:27:01.624Z,5.93
2023-03-17T23:31:53.736Z,6.20
2023-03-17T23:36:45.931Z,6.47
2023-03-17T23:41:38.234Z,6.30
2023-03-17T23:46:30.010Z,6.83
2023-03-17T23:51:33.637Z,6.87
2023-03-17T23:56:29.321Z,7.20
